sensor_id;sensor_type;location;lat;lon;timestamp;P1;durP1;ratioP1;P2;durP2;ratioP2
7171;SDS011;3627;46.544;14.944;2022-08-18T00:00:25;9.00;;;7.35;;
7171;SDS011;3627;46.544;14.944;2022-08-18T00:02:53;8.23;;;7.25;;
7171;SDS011;3627;46.544;14.944;2022-08-18T00:05:19;8.43;;;7.45;;
7171;SDS011;3627;46.544;14.944;2022-08-18T00:07:46;8.45;;;7.15;;
7171;SDS011;3627;46.544;14.944;2022-08-18T00:10:12;10.00;;;7.43;;
7171;SDS011;3627;46.544;14.944;2022-08-18T00:12:40;9.73;;;7.75;;
7171;SDS011;3627;46.544;14.944;2022-08-18T00:15:08;9.63;;;7.70;;
7171;SDS011;3627;46.544;14.944;2022-08-18T00:17:34;9.50;;;7.10;;
7171;SDS011;3627;46.544;14.944;2022-08-18T00:20:04;8.13;;;7.05;;
7171;SDS011;3627;46.544;14.944;2022-08-18T00:22:30;10.15;;;7.07;;
7171;SDS011;3627;46.544;14.944;2022-08-18T00:24:57;11.18;;;7.28;;
7171;SDS011;3627;46.544;14.944;2022-08-18T00:27:24;7.60;;;6.57;;
7171;SDS011;3627;46.544;14.944;2022-08-18T00:29:51;8.73;;;7.07;;
7171;SDS011;3627;46.544;14.944;2022-08-18T00:32:19;10.68;;;7.13;;
7171;SDS011;3627;46.544;14.944;2022-08-18T00:34:46;8.57;;;7.03;;
7171;SDS011;3627;46.544;14.944;2022-08-18T00:37:13;8.70;;;7.80;;
7171;SDS011;3627;46.544;14.944;2022-08-18T00:39:40;10.40;;;7.43;;
7171;SDS011;3627;46.544;14.944;2022-08-18T00:42:13;10.88;;;8.05;;
7171;SDS011;3627;46.544;14.944;2022-08-18T00:44:40;9.80;;;7.07;;
7171;SDS011;3627;46.544;14.944;2022-08-18T00:47:06;8.02;;;7.18;;
7171;SDS011;3627;46.544;14.944;2022-08-18T00:49:32;8.63;;;7.72;;
7171;SDS011;3627;46.544;14.944;2022-08-18T00:51:59;8.27;;;6.97;;
7171;SDS011;3627;46.544;14.944;2022-08-18T00:54:28;9.60;;;7.25;;
7171;SDS011;3627;46.544;14.944;2022-08-18T00:56:56;9.90;;;7.97;;
7171;SDS011;3627;46.544;14.944;2022-08-18T00:59:25;9.07;;;7.55;;
7171;SDS011;3627;46.544;14.944;2022-08-18T01:01:53;10.02;;;7.68;;
7171;SDS011;3627;46.544;14.944;2022-08-18T01:04:25;9.50;;;7.40;;
7171;SDS011;3627;46.544;14.944;2022-08-18T01:06:54;8.00;;;7.20;;
7171;SDS011;3627;46.544;14.944;2022-08-18T01:09:21;11.85;;;7.60;;
7171;SDS011;3627;46.544;14.944;2022-08-18T01:11:49;10.02;;;7.10;;
7171;SDS011;3627;46.544;14.944;2022-08-18T01:14:16;9.80;;;7.53;;
7171;SDS011;3627;46.544;14.944;2022-08-18T01:16:43;11.07;;;7.38;;
7171;SDS011;3627;46.544;14.944;2022-08-18T01:19:27;8.30;;;7.55;;
7171;SDS011;3627;46.544;14.944;2022-08-18T01:22:13;8.55;;;7.63;;
7171;SDS011;3627;46.544;14.944;2022-08-18T01:24:43;9.73;;;8.27;;
7171;SDS011;3627;46.544;14.944;2022-08-18T01:27:27;7.88;;;7.07;;
7171;SDS011;3627;46.544;14.944;2022-08-18T01:29:56;8.50;;;7.65;;
7171;SDS011;3627;46.544;14.944;2022-08-18T01:32:27;9.82;;;8.30;;
7171;SDS011;3627;46.544;14.944;2022-08-18T01:34:53;9.52;;;8.40;;
7171;SDS011;3627;46.544;14.944;2022-08-18T01:37:21;8.85;;;7.70;;
7171;SDS011;3627;46.544;14.944;2022-08-18T01:39:50;10.77;;;7.55;;
7171;SDS011;3627;46.544;14.944;2022-08-18T01:42:16;8.27;;;7.35;;
7171;SDS011;3627;46.544;14.944;2022-08-18T01:44:43;9.40;;;8.43;;
7171;SDS011;3627;46.544;14.944;2022-08-18T01:47:10;10.75;;;7.85;;
7171;SDS011;3627;46.544;14.944;2022-08-18T01:49:37;9.80;;;8.25;;
7171;SDS011;3627;46.544;14.944;2022-08-18T01:52:04;9.43;;;8.20;;
7171;SDS011;3627;46.544;14.944;2022-08-18T01:54:31;10.27;;;7.82;;
7171;SDS011;3627;46.544;14.944;2022-08-18T01:56:59;9.45;;;7.50;;
7171;SDS011;3627;46.544;14.944;2022-08-18T01:59:25;8.27;;;7.47;;
7171;SDS011;3627;46.544;14.944;2022-08-18T02:01:52;9.48;;;8.10;;
7171;SDS011;3627;46.544;14.944;2022-08-18T02:04:21;8.52;;;7.28;;
7171;SDS011;3627;46.544;14.944;2022-08-18T02:06:48;9.18;;;7.88;;
7171;SDS011;3627;46.544;14.944;2022-08-18T02:09:15;11.73;;;8.45;;
7171;SDS011;3627;46.544;14.944;2022-08-18T02:11:41;10.38;;;7.15;;
7171;SDS011;3627;46.544;14.944;2022-08-18T02:14:09;9.15;;;7.75;;
7171;SDS011;3627;46.544;14.944;2022-08-18T02:16:35;10.95;;;8.23;;
7171;SDS011;3627;46.544;14.944;2022-08-18T02:19:02;12.73;;;8.07;;
7171;SDS011;3627;46.544;14.944;2022-08-18T02:21:28;9.45;;;8.43;;
7171;SDS011;3627;46.544;14.944;2022-08-18T02:23:54;9.98;;;8.40;;
7171;SDS011;3627;46.544;14.944;2022-08-18T02:26:21;12.88;;;8.95;;
7171;SDS011;3627;46.544;14.944;2022-08-18T02:28:48;11.05;;;8.75;;
7171;SDS011;3627;46.544;14.944;2022-08-18T02:31:17;10.18;;;8.38;;
7171;SDS011;3627;46.544;14.944;2022-08-18T02:33:44;9.75;;;8.75;;
7171;SDS011;3627;46.544;14.944;2022-08-18T02:36:11;10.68;;;8.52;;
7171;SDS011;3627;46.544;14.944;2022-08-18T02:38:37;9.88;;;8.88;;
7171;SDS011;3627;46.544;14.944;2022-08-18T02:41:04;11.18;;;9.43;;
7171;SDS011;3627;46.544;14.944;2022-08-18T02:43:32;9.23;;;8.10;;
7171;SDS011;3627;46.544;14.944;2022-08-18T02:45:58;9.45;;;8.55;;
7171;SDS011;3627;46.544;14.944;2022-08-18T02:48:26;10.70;;;8.63;;
7171;SDS011;3627;46.544;14.944;2022-08-18T02:50:58;9.38;;;8.38;;
7171;SDS011;3627;46.544;14.944;2022-08-18T02:53:25;9.70;;;8.48;;
7171;SDS011;3627;46.544;14.944;2022-08-18T02:55:52;11.23;;;8.70;;
7171;SDS011;3627;46.544;14.944;2022-08-18T02:58:19;9.68;;;8.68;;
7171;SDS011;3627;46.544;14.944;2022-08-18T03:00:46;9.20;;;8.00;;
7171;SDS011;3627;46.544;14.944;2022-08-18T03:03:12;12.60;;;8.73;;
7171;SDS011;3627;46.544;14.944;2022-08-18T03:05:40;9.65;;;8.40;;
7171;SDS011;3627;46.544;14.944;2022-08-18T03:08:06;9.57;;;8.35;;
7171;SDS011;3627;46.544;14.944;2022-08-18T03:10:34;9.50;;;8.60;;
7171;SDS011;3627;46.544;14.944;2022-08-18T03:13:01;10.02;;;8.63;;
7171;SDS011;3627;46.544;14.944;2022-08-18T03:15:27;9.82;;;8.82;;
7171;SDS011;3627;46.544;14.944;2022-08-18T03:17:53;9.55;;;8.55;;
7171;SDS011;3627;46.544;14.944;2022-08-18T03:20:20;10.02;;;8.45;;
7171;SDS011;3627;46.544;14.944;2022-08-18T03:22:48;11.20;;;9.27;;
7171;SDS011;3627;46.544;14.944;2022-08-18T03:25:14;9.50;;;8.50;;
7171;SDS011;3627;46.544;14.944;2022-08-18T03:27:40;11.40;;;9.30;;
7171;SDS011;3627;46.544;14.944;2022-08-18T03:30:07;9.70;;;8.70;;
7171;SDS011;3627;46.544;14.944;2022-08-18T03:32:33;10.30;;;9.30;;
7171;SDS011;3627;46.544;14.944;2022-08-18T03:35:00;14.00;;;9.25;;
7171;SDS011;3627;46.544;14.944;2022-08-18T03:37:26;10.95;;;8.70;;
7171;SDS011;3627;46.544;14.944;2022-08-18T03:39:54;10.50;;;9.48;;
7171;SDS011;3627;46.544;14.944;2022-08-18T03:42:21;10.90;;;8.68;;
7171;SDS011;3627;46.544;14.944;2022-08-18T03:44:48;10.38;;;8.75;;
7171;SDS011;3627;46.544;14.944;2022-08-18T03:47:14;9.60;;;8.60;;
7171;SDS011;3627;46.544;14.944;2022-08-18T03:49:41;10.18;;;8.60;;
7171;SDS011;3627;46.544;14.944;2022-08-18T03:52:08;10.65;;;9.20;;
7171;SDS011;3627;46.544;14.944;2022-08-18T03:54:34;13.43;;;9.40;;
7171;SDS011;3627;46.544;14.944;2022-08-18T03:57:06;11.45;;;9.32;;
7171;SDS011;3627;46.544;14.944;2022-08-18T03:59:32;10.95;;;9.15;;
7171;SDS011;3627;46.544;14.944;2022-08-18T04:02:01;9.70;;;8.63;;
7171;SDS011;3627;46.544;14.944;2022-08-18T04:04:28;11.10;;;9.55;;
7171;SDS011;3627;46.544;14.944;2022-08-18T04:06:55;13.35;;;9.68;;
7171;SDS011;3627;46.544;14.944;2022-08-18T04:09:22;10.85;;;9.75;;
7171;SDS011;3627;46.544;14.944;2022-08-18T04:11:49;11.52;;;9.80;;
7171;SDS011;3627;46.544;14.944;2022-08-18T04:14:18;10.23;;;9.07;;
7171;SDS011;3627;46.544;14.944;2022-08-18T04:16:45;11.23;;;9.40;;
7171;SDS011;3627;46.544;14.944;2022-08-18T04:19:13;10.63;;;9.35;;
7171;SDS011;3627;46.544;14.944;2022-08-18T04:21:41;9.68;;;8.52;;
7171;SDS011;3627;46.544;14.944;2022-08-18T04:24:08;13.02;;;9.88;;
7171;SDS011;3627;46.544;14.944;2022-08-18T04:26:37;10.48;;;9.13;;
7171;SDS011;3627;46.544;14.944;2022-08-18T04:29:03;10.52;;;9.45;;
7171;SDS011;3627;46.544;14.944;2022-08-18T04:31:31;10.70;;;9.60;;
7171;SDS011;3627;46.544;14.944;2022-08-18T04:33:58;11.75;;;9.32;;
7171;SDS011;3627;46.544;14.944;2022-08-18T04:36:25;12.23;;;9.18;;
7171;SDS011;3627;46.544;14.944;2022-08-18T04:38:52;10.30;;;9.13;;
7171;SDS011;3627;46.544;14.944;2022-08-18T04:41:18;9.88;;;8.88;;
7171;SDS011;3627;46.544;14.944;2022-08-18T04:43:51;12.73;;;11.02;;
7171;SDS011;3627;46.544;14.944;2022-08-18T04:46:17;13.75;;;9.98;;
7171;SDS011;3627;46.544;14.944;2022-08-18T04:48:45;10.73;;;9.38;;
7171;SDS011;3627;46.544;14.944;2022-08-18T04:51:14;13.30;;;8.93;;
7171;SDS011;3627;46.544;14.944;2022-08-18T04:53:41;14.27;;;9.55;;
7171;SDS011;3627;46.544;14.944;2022-08-18T04:56:13;10.80;;;8.98;;
7171;SDS011;3627;46.544;14.944;2022-08-18T04:58:41;10.13;;;7.72;;
7171;SDS011;3627;46.544;14.944;2022-08-18T05:01:08;11.65;;;8.80;;
7171;SDS011;3627;46.544;14.944;2022-08-18T05:03:34;11.57;;;9.15;;
7171;SDS011;3627;46.544;14.944;2022-08-18T05:06:04;10.88;;;7.70;;
7171;SDS011;3627;46.544;14.944;2022-08-18T05:08:31;11.63;;;7.65;;
7171;SDS011;3627;46.544;14.944;2022-08-18T05:10:57;14.77;;;8.27;;
7171;SDS011;3627;46.544;14.944;2022-08-18T05:13:24;18.35;;;8.77;;
7171;SDS011;3627;46.544;14.944;2022-08-18T05:15:54;12.00;;;8.40;;
7171;SDS011;3627;46.544;14.944;2022-08-18T05:18:20;19.02;;;9.05;;
7171;SDS011;3627;46.544;14.944;2022-08-18T05:20:48;14.98;;;7.45;;
7171;SDS011;3627;46.544;14.944;2022-08-18T05:23:16;18.67;;;7.85;;
7171;SDS011;3627;46.544;14.944;2022-08-18T05:25:42;12.50;;;8.10;;
7171;SDS011;3627;46.544;14.944;2022-08-18T05:28:09;11.60;;;7.28;;
7171;SDS011;3627;46.544;14.944;2022-08-18T05:30:36;11.77;;;7.20;;
7171;SDS011;3627;46.544;14.944;2022-08-18T05:33:02;11.57;;;6.82;;
7171;SDS011;3627;46.544;14.944;2022-08-18T05:35:29;15.35;;;7.13;;
7171;SDS011;3627;46.544;14.944;2022-08-18T05:38:05;10.95;;;7.10;;
7171;SDS011;3627;46.544;14.944;2022-08-18T05:40:37;11.43;;;7.13;;
7171;SDS011;3627;46.544;14.944;2022-08-18T05:43:04;11.15;;;6.75;;
7171;SDS011;3627;46.544;14.944;2022-08-18T05:45:31;12.68;;;6.40;;
7171;SDS011;3627;46.544;14.944;2022-08-18T07:50:28;6.15;;;3.75;;
7171;SDS011;3627;46.544;14.944;2022-08-18T07:53:00;6.00;;;3.60;;
7171;SDS011;3627;46.544;14.944;2022-08-18T07:55:30;5.30;;;4.10;;
7171;SDS011;3627;46.544;14.944;2022-08-18T08:05:16;5.10;;;3.70;;
7171;SDS011;3627;46.544;14.944;2022-08-18T08:07:47;5.20;;;3.50;;
7171;SDS011;3627;46.544;14.944;2022-08-18T08:10:21;4.22;;;3.60;;
7171;SDS011;3627;46.544;14.944;2022-08-18T08:12:50;6.22;;;3.53;;
7171;SDS011;3627;46.544;14.944;2022-08-18T08:15:20;7.82;;;3.78;;
7171;SDS011;3627;46.544;14.944;2022-08-18T08:17:52;7.45;;;3.40;;
7171;SDS011;3627;46.544;14.944;2022-08-18T08:20:22;5.00;;;3.10;;
7171;SDS011;3627;46.544;14.944;2022-08-18T08:22:55;4.25;;;3.40;;
7171;SDS011;3627;46.544;14.944;2022-08-18T08:25:25;4.00;;;3.33;;
7171;SDS011;3627;46.544;14.944;2022-08-18T08:27:57;5.05;;;3.17;;
7171;SDS011;3627;46.544;14.944;2022-08-18T08:30:27;6.72;;;3.47;;
7171;SDS011;3627;46.544;14.944;2022-08-18T08:32:57;4.82;;;3.10;;
7171;SDS011;3627;46.544;14.944;2022-08-18T08:35:29;7.00;;;3.40;;
7171;SDS011;3627;46.544;14.944;2022-08-18T08:37:58;5.38;;;3.05;;
7171;SDS011;3627;46.544;14.944;2022-08-18T08:40:25;4.93;;;3.10;;
7171;SDS011;3627;46.544;14.944;2022-08-18T08:42:54;4.90;;;3.08;;
7171;SDS011;3627;46.544;14.944;2022-08-18T08:45:23;6.50;;;2.90;;
7171;SDS011;3627;46.544;14.944;2022-08-18T08:47:54;4.75;;;2.80;;
7171;SDS011;3627;46.544;14.944;2022-08-18T08:50:23;7.40;;;2.88;;
7171;SDS011;3627;46.544;14.944;2022-08-18T08:52:51;4.90;;;2.80;;
7171;SDS011;3627;46.544;14.944;2022-08-18T08:55:22;4.22;;;3.20;;
7171;SDS011;3627;46.544;14.944;2022-08-18T08:57:50;5.88;;;3.20;;
7171;SDS011;3627;46.544;14.944;2022-08-18T09:00:20;5.20;;;3.22;;
7171;SDS011;3627;46.544;14.944;2022-08-18T09:02:51;6.68;;;3.17;;
7171;SDS011;3627;46.544;14.944;2022-08-18T09:05:20;5.10;;;3.00;;
7171;SDS011;3627;46.544;14.944;2022-08-18T09:08:03;4.47;;;3.30;;
7171;SDS011;3627;46.544;14.944;2022-08-18T09:10:48;4.47;;;2.85;;
7171;SDS011;3627;46.544;14.944;2022-08-18T09:13:22;5.80;;;3.10;;
7171;SDS011;3627;46.544;14.944;2022-08-18T09:16:03;6.65;;;3.00;;
7171;SDS011;3627;46.544;14.944;2022-08-18T09:18:33;4.97;;;2.97;;
7171;SDS011;3627;46.544;14.944;2022-08-18T09:21:12;4.03;;;2.92;;
7171;SDS011;3627;46.544;14.944;2022-08-18T09:23:44;5.18;;;2.67;;
7171;SDS011;3627;46.544;14.944;2022-08-18T09:26:24;7.10;;;3.30;;
7171;SDS011;3627;46.544;14.944;2022-08-18T09:28:53;6.13;;;3.28;;
7171;SDS011;3627;46.544;14.944;2022-08-18T09:31:22;6.72;;;3.28;;
7171;SDS011;3627;46.544;14.944;2022-08-18T09:33:55;8.18;;;3.22;;
7171;SDS011;3627;46.544;14.944;2022-08-18T09:36:32;7.97;;;3.20;;
7171;SDS011;3627;46.544;14.944;2022-08-18T09:39:06;5.53;;;2.65;;
7171;SDS011;3627;46.544;14.944;2022-08-18T09:41:54;6.13;;;2.90;;
7171;SDS011;3627;46.544;14.944;2022-08-18T09:47:05;4.15;;;2.97;;
7171;SDS011;3627;46.544;14.944;2022-08-18T09:49:41;4.05;;;3.03;;
7171;SDS011;3627;46.544;14.944;2022-08-18T09:55:05;5.45;;;2.97;;
7171;SDS011;3627;46.544;14.944;2022-08-18T09:57:33;7.35;;;3.70;;
7171;SDS011;3627;46.544;14.944;2022-08-18T10:05:35;9.68;;;3.28;;
7171;SDS011;3627;46.544;14.944;2022-08-18T10:10:50;6.43;;;3.22;;
7171;SDS011;3627;46.544;14.944;2022-08-18T10:13:21;9.45;;;4.15;;
7171;SDS011;3627;46.544;14.944;2022-08-18T10:15:55;5.57;;;3.38;;
7171;SDS011;3627;46.544;14.944;2022-08-18T10:18:37;9.75;;;4.15;;
7171;SDS011;3627;46.544;14.944;2022-08-18T10:21:08;4.18;;;3.20;;
7171;SDS011;3627;46.544;14.944;2022-08-18T10:29:09;9.00;;;3.40;;
7171;SDS011;3627;46.544;14.944;2022-08-18T10:34:23;6.23;;;3.63;;
7171;SDS011;3627;46.544;14.944;2022-08-18T10:37:02;7.80;;;3.80;;
7171;SDS011;3627;46.544;14.944;2022-08-18T10:39:42;6.60;;;3.80;;
7171;SDS011;3627;46.544;14.944;2022-08-18T10:42:09;6.10;;;3.72;;
7171;SDS011;3627;46.544;14.944;2022-08-18T10:44:41;10.87;;;3.30;;
7171;SDS011;3627;46.544;14.944;2022-08-18T10:47:08;6.35;;;3.90;;
7171;SDS011;3627;46.544;14.944;2022-08-18T10:49:35;5.88;;;3.47;;
7171;SDS011;3627;46.544;14.944;2022-08-18T10:54:54;8.00;;;3.70;;
7171;SDS011;3627;46.544;14.944;2022-08-18T10:57:24;5.83;;;3.73;;
7171;SDS011;3627;46.544;14.944;2022-08-18T10:59:56;5.90;;;4.00;;
7171;SDS011;3627;46.544;14.944;2022-08-18T11:02:32;8.25;;;3.60;;
7171;SDS011;3627;46.544;14.944;2022-08-18T11:05:03;8.50;;;4.27;;
7171;SDS011;3627;46.544;14.944;2022-08-18T11:07:30;12.50;;;4.50;;
7171;SDS011;3627;46.544;14.944;2022-08-18T11:09:57;8.65;;;4.30;;
7171;SDS011;3627;46.544;14.944;2022-08-18T11:12:51;7.90;;;4.20;;
7171;SDS011;3627;46.544;14.944;2022-08-18T11:15:26;8.30;;;4.60;;
7171;SDS011;3627;46.544;14.944;2022-08-18T11:18:00;11.20;;;4.60;;
7171;SDS011;3627;46.544;14.944;2022-08-18T11:20:31;12.13;;;4.27;;
7171;SDS011;3627;46.544;14.944;2022-08-18T11:22:59;9.20;;;4.40;;
7171;SDS011;3627;46.544;14.944;2022-08-18T11:25:27;8.90;;;4.17;;
7171;SDS011;3627;46.544;14.944;2022-08-18T11:27:54;7.30;;;3.90;;
7171;SDS011;3627;46.544;14.944;2022-08-18T11:30:21;6.53;;;4.38;;
7171;SDS011;3627;46.544;14.944;2022-08-18T11:32:50;7.67;;;3.87;;
7171;SDS011;3627;46.544;14.944;2022-08-18T11:35:17;10.33;;;4.27;;
7171;SDS011;3627;46.544;14.944;2022-08-18T11:37:45;6.65;;;4.13;;
7171;SDS011;3627;46.544;14.944;2022-08-18T11:40:19;12.00;;;4.65;;
7171;SDS011;3627;46.544;14.944;2022-08-18T11:42:49;7.45;;;4.10;;
7171;SDS011;3627;46.544;14.944;2022-08-18T11:45:19;8.50;;;4.28;;
7171;SDS011;3627;46.544;14.944;2022-08-18T11:48:01;7.20;;;4.40;;
7171;SDS011;3627;46.544;14.944;2022-08-18T11:50:43;9.35;;;4.30;;
7171;SDS011;3627;46.544;14.944;2022-08-18T11:53:12;12.50;;;4.32;;
7171;SDS011;3627;46.544;14.944;2022-08-18T11:55:39;11.23;;;4.93;;
7171;SDS011;3627;46.544;14.944;2022-08-18T11:58:05;11.73;;;4.72;;
7171;SDS011;3627;46.544;14.944;2022-08-18T12:00:40;8.70;;;4.25;;
7171;SDS011;3627;46.544;14.944;2022-08-18T12:03:09;10.25;;;4.60;;
7171;SDS011;3627;46.544;14.944;2022-08-18T12:05:40;7.72;;;4.00;;
7171;SDS011;3627;46.544;14.944;2022-08-18T12:08:14;8.70;;;4.82;;
7171;SDS011;3627;46.544;14.944;2022-08-18T12:10:41;9.57;;;4.43;;
7171;SDS011;3627;46.544;14.944;2022-08-18T12:13:07;9.27;;;4.15;;
7171;SDS011;3627;46.544;14.944;2022-08-18T12:15:34;10.27;;;4.43;;
7171;SDS011;3627;46.544;14.944;2022-08-18T12:18:00;6.88;;;3.90;;
7171;SDS011;3627;46.544;14.944;2022-08-18T12:20:28;7.87;;;4.17;;
7171;SDS011;3627;46.544;14.944;2022-08-18T12:22:55;11.90;;;4.10;;
7171;SDS011;3627;46.544;14.944;2022-08-18T12:25:22;10.88;;;3.92;;
7171;SDS011;3627;46.544;14.944;2022-08-18T12:27:48;8.70;;;4.22;;
7171;SDS011;3627;46.544;14.944;2022-08-18T12:30:15;7.30;;;3.80;;
7171;SDS011;3627;46.544;14.944;2022-08-18T12:32:41;6.72;;;4.20;;
7171;SDS011;3627;46.544;14.944;2022-08-18T12:35:08;10.47;;;4.37;;
7171;SDS011;3627;46.544;14.944;2022-08-18T12:37:40;10.63;;;4.10;;
7171;SDS011;3627;46.544;14.944;2022-08-18T12:40:08;8.57;;;3.97;;
7171;SDS011;3627;46.544;14.944;2022-08-18T12:42:35;9.02;;;3.88;;
7171;SDS011;3627;46.544;14.944;2022-08-18T12:45:02;11.60;;;3.70;;
7171;SDS011;3627;46.544;14.944;2022-08-18T12:47:29;15.17;;;3.80;;
7171;SDS011;3627;46.544;14.944;2022-08-18T12:49:56;13.40;;;4.13;;
7171;SDS011;3627;46.544;14.944;2022-08-18T12:52:22;7.93;;;3.40;;
7171;SDS011;3627;46.544;14.944;2022-08-18T12:54:50;8.67;;;3.83;;
7171;SDS011;3627;46.544;14.944;2022-08-18T12:57:18;10.65;;;3.97;;
7171;SDS011;3627;46.544;14.944;2022-08-18T12:59:45;6.72;;;3.67;;
7171;SDS011;3627;46.544;14.944;2022-08-18T13:02:12;7.05;;;3.50;;
7171;SDS011;3627;46.544;14.944;2022-08-18T13:04:38;6.90;;;3.85;;
7171;SDS011;3627;46.544;14.944;2022-08-18T13:07:04;7.88;;;3.15;;
7171;SDS011;3627;46.544;14.944;2022-08-18T13:09:32;13.77;;;3.88;;
7171;SDS011;3627;46.544;14.944;2022-08-18T13:12:00;13.73;;;4.07;;
7171;SDS011;3627;46.544;14.944;2022-08-18T13:14:27;9.40;;;3.70;;
7171;SDS011;3627;46.544;14.944;2022-08-18T13:16:53;7.70;;;3.70;;
7171;SDS011;3627;46.544;14.944;2022-08-18T13:19:20;9.05;;;3.72;;
7171;SDS011;3627;46.544;14.944;2022-08-18T13:21:46;8.80;;;3.33;;
7171;SDS011;3627;46.544;14.944;2022-08-18T13:24:13;6.03;;;3.40;;
7171;SDS011;3627;46.544;14.944;2022-08-18T13:26:40;8.02;;;3.45;;
7171;SDS011;3627;46.544;14.944;2022-08-18T13:29:08;9.25;;;3.88;;
7171;SDS011;3627;46.544;14.944;2022-08-18T13:31:34;8.05;;;3.80;;
7171;SDS011;3627;46.544;14.944;2022-08-18T13:34:02;17.15;;;4.47;;
7171;SDS011;3627;46.544;14.944;2022-08-18T13:36:28;12.02;;;3.60;;
7171;SDS011;3627;46.544;14.944;2022-08-18T13:39:08;5.15;;;2.83;;
7171;SDS011;3627;46.544;14.944;2022-08-18T13:41:35;10.50;;;2.83;;
7171;SDS011;3627;46.544;14.944;2022-08-18T13:44:01;7.80;;;2.85;;
7171;SDS011;3627;46.544;14.944;2022-08-18T13:46:29;5.07;;;2.47;;
7171;SDS011;3627;46.544;14.944;2022-08-18T13:48:56;5.20;;;2.85;;
7171;SDS011;3627;46.544;14.944;2022-08-18T13:51:26;3.70;;;2.30;;
7171;SDS011;3627;46.544;14.944;2022-08-18T13:53:53;7.07;;;2.53;;
7171;SDS011;3627;46.544;14.944;2022-08-18T18:39:35;6.47;;;2.80;;
7171;SDS011;3627;46.544;14.944;2022-08-18T18:42:08;8.75;;;3.13;;
7171;SDS011;3627;46.544;14.944;2022-08-18T18:44:35;7.40;;;3.17;;
7171;SDS011;3627;46.544;14.944;2022-08-18T18:47:04;6.75;;;3.58;;
7171;SDS011;3627;46.544;14.944;2022-08-18T18:49:35;5.05;;;3.13;;
7171;SDS011;3627;46.544;14.944;2022-08-18T18:52:05;7.13;;;3.33;;
7171;SDS011;3627;46.544;14.944;2022-08-18T18:54:43;3.72;;;2.65;;
7171;SDS011;3627;46.544;14.944;2022-08-18T18:57:13;8.70;;;3.60;;
7171;SDS011;3627;46.544;14.944;2022-08-18T18:59:45;6.38;;;2.97;;
7171;SDS011;3627;46.544;14.944;2022-08-18T19:02:13;10.10;;;3.60;;
7171;SDS011;3627;46.544;14.944;2022-08-18T19:04:43;6.93;;;3.05;;
7171;SDS011;3627;46.544;14.944;2022-08-18T19:07:12;10.90;;;3.42;;
7171;SDS011;3627;46.544;14.944;2022-08-18T19:09:45;6.82;;;3.33;;
7171;SDS011;3627;46.544;14.944;2022-08-18T19:12:14;7.43;;;3.10;;
7171;SDS011;3627;46.544;14.944;2022-08-18T19:14:44;6.28;;;2.88;;
7171;SDS011;3627;46.544;14.944;2022-08-18T19:17:14;8.75;;;3.65;;
7171;SDS011;3627;46.544;14.944;2022-08-18T19:19:43;7.03;;;3.20;;
7171;SDS011;3627;46.544;14.944;2022-08-18T19:22:14;6.43;;;3.05;;
7171;SDS011;3627;46.544;14.944;2022-08-18T19:24:45;5.13;;;3.33;;
7171;SDS011;3627;46.544;14.944;2022-08-18T19:27:16;6.40;;;3.30;;
7171;SDS011;3627;46.544;14.944;2022-08-18T19:29:44;8.60;;;3.20;;
7171;SDS011;3627;46.544;14.944;2022-08-18T19:32:12;6.78;;;3.40;;
7171;SDS011;3627;46.544;14.944;2022-08-18T19:34:40;5.15;;;3.20;;
7171;SDS011;3627;46.544;14.944;2022-08-18T19:37:16;9.73;;;3.13;;
7171;SDS011;3627;46.544;14.944;2022-08-18T19:39:46;5.50;;;2.90;;
7171;SDS011;3627;46.544;14.944;2022-08-18T19:42:15;7.68;;;3.28;;
7171;SDS011;3627;46.544;14.944;2022-08-18T19:44:44;8.10;;;3.17;;
7171;SDS011;3627;46.544;14.944;2022-08-18T19:47:13;6.68;;;2.88;;
7171;SDS011;3627;46.544;14.944;2022-08-18T19:49:44;9.40;;;3.38;;
7171;SDS011;3627;46.544;14.944;2022-08-18T19:52:17;5.45;;;3.58;;
7171;SDS011;3627;46.544;14.944;2022-08-18T19:54:52;5.13;;;3.47;;
7171;SDS011;3627;46.544;14.944;2022-08-18T19:57:24;7.57;;;3.20;;
7171;SDS011;3627;46.544;14.944;2022-08-18T20:05:30;5.50;;;3.13;;
7171;SDS011;3627;46.544;14.944;2022-08-18T20:08:11;10.25;;;3.50;;
7171;SDS011;3627;46.544;14.944;2022-08-18T20:10:48;4.18;;;2.78;;
7171;SDS011;3627;46.544;14.944;2022-08-18T20:13:24;6.20;;;3.63;;
7171;SDS011;3627;46.544;14.944;2022-08-18T20:15:59;4.85;;;3.30;;
7171;SDS011;3627;46.544;14.944;2022-08-18T20:18:35;8.57;;;3.40;;
7171;SDS011;3627;46.544;14.944;2022-08-18T20:23:57;5.70;;;2.92;;
7171;SDS011;3627;46.544;14.944;2022-08-18T20:29:18;6.05;;;2.97;;
7171;SDS011;3627;46.544;14.944;2022-08-18T20:31:49;8.38;;;3.60;;
7171;SDS011;3627;46.544;14.944;2022-08-18T20:34:17;5.53;;;3.00;;
7171;SDS011;3627;46.544;14.944;2022-08-18T20:36:45;6.18;;;3.40;;
7171;SDS011;3627;46.544;14.944;2022-08-18T20:39:38;8.50;;;3.47;;
7171;SDS011;3627;46.544;14.944;2022-08-18T20:42:06;7.93;;;3.25;;
7171;SDS011;3627;46.544;14.944;2022-08-18T20:50:06;6.90;;;2.88;;
7171;SDS011;3627;46.544;14.944;2022-08-18T20:52:39;7.32;;;3.20;;
7171;SDS011;3627;46.544;14.944;2022-08-18T20:55:09;5.97;;;3.10;;
7171;SDS011;3627;46.544;14.944;2022-08-18T20:57:39;7.93;;;3.13;;
7171;SDS011;3627;46.544;14.944;2022-08-18T21:00:07;7.85;;;3.30;;
7171;SDS011;3627;46.544;14.944;2022-08-18T21:02:38;8.65;;;3.33;;
7171;SDS011;3627;46.544;14.944;2022-08-18T21:05:07;8.25;;;3.58;;
7171;SDS011;3627;46.544;14.944;2022-08-18T21:07:36;7.72;;;3.22;;
7171;SDS011;3627;46.544;14.944;2022-08-18T21:10:04;5.22;;;2.92;;
7171;SDS011;3627;46.544;14.944;2022-08-18T21:12:32;7.35;;;3.45;;
7171;SDS011;3627;46.544;14.944;2022-08-18T21:15:02;5.82;;;3.20;;
7171;SDS011;3627;46.544;14.944;2022-08-18T21:17:30;6.32;;;3.03;;
7171;SDS011;3627;46.544;14.944;2022-08-18T21:19:57;8.52;;;3.28;;
7171;SDS011;3627;46.544;14.944;2022-08-18T21:22:25;4.32;;;3.17;;
7171;SDS011;3627;46.544;14.944;2022-08-18T21:24:52;5.72;;;3.38;;
7171;SDS011;3627;46.544;14.944;2022-08-18T21:27:23;9.45;;;3.67;;
7171;SDS011;3627;46.544;14.944;2022-08-18T21:29:50;5.07;;;3.40;;
7171;SDS011;3627;46.544;14.944;2022-08-18T21:32:18;6.10;;;2.92;;
7171;SDS011;3627;46.544;14.944;2022-08-18T21:34:44;7.97;;;3.65;;
7171;SDS011;3627;46.544;14.944;2022-08-18T21:37:12;9.10;;;3.50;;
7171;SDS011;3627;46.544;14.944;2022-08-18T21:39:48;8.65;;;3.53;;
7171;SDS011;3627;46.544;14.944;2022-08-18T21:42:19;11.38;;;4.45;;
7171;SDS011;3627;46.544;14.944;2022-08-18T21:44:46;9.88;;;3.92;;
7171;SDS011;3627;46.544;14.944;2022-08-18T21:47:13;8.70;;;3.55;;
7171;SDS011;3627;46.544;14.944;2022-08-18T21:49:54;7.90;;;3.30;;
7171;SDS011;3627;46.544;14.944;2022-08-18T21:52:22;7.22;;;3.60;;
7171;SDS011;3627;46.544;14.944;2022-08-18T21:54:50;4.82;;;3.63;;
7171;SDS011;3627;46.544;14.944;2022-08-18T21:57:18;4.95;;;3.60;;
7171;SDS011;3627;46.544;14.944;2022-08-18T22:02:29;8.30;;;3.55;;
7171;SDS011;3627;46.544;14.944;2022-08-18T22:04:56;6.13;;;3.22;;
7171;SDS011;3627;46.544;14.944;2022-08-18T22:07:23;6.38;;;3.60;;
7171;SDS011;3627;46.544;14.944;2022-08-18T22:09:58;7.45;;;3.33;;
7171;SDS011;3627;46.544;14.944;2022-08-18T22:12:42;8.75;;;3.50;;
7171;SDS011;3627;46.544;14.944;2022-08-18T22:15:35;4.50;;;3.13;;
7171;SDS011;3627;46.544;14.944;2022-08-18T22:18:05;7.30;;;3.70;;
7171;SDS011;3627;46.544;14.944;2022-08-18T22:20:36;5.85;;;3.42;;
7171;SDS011;3627;46.544;14.944;2022-08-18T22:23:05;4.32;;;3.28;;
7171;SDS011;3627;46.544;14.944;2022-08-18T22:25:51;6.80;;;3.47;;
7171;SDS011;3627;46.544;14.944;2022-08-18T22:28:21;5.55;;;3.47;;
7171;SDS011;3627;46.544;14.944;2022-08-18T22:30:47;9.70;;;3.85;;
7171;SDS011;3627;46.544;14.944;2022-08-18T22:33:13;5.60;;;3.40;;
7171;SDS011;3627;46.544;14.944;2022-08-18T22:35:40;5.07;;;3.38;;
7171;SDS011;3627;46.544;14.944;2022-08-18T22:38:09;9.02;;;3.92;;
7171;SDS011;3627;46.544;14.944;2022-08-18T22:40:35;9.98;;;4.03;;
7171;SDS011;3627;46.544;14.944;2022-08-18T22:43:03;6.38;;;3.85;;
7171;SDS011;3627;46.544;14.944;2022-08-18T22:45:29;5.07;;;3.25;;
7171;SDS011;3627;46.544;14.944;2022-08-18T22:47:56;5.55;;;3.30;;